Terminal Aerodrome Forecast
Issued by NWS

Home | Current Version | Previous Version | Text Only | Print | Product List | Glossary On
Versions: 1 2 3 4 5 6 7 8 9 10 11 12 13 14 15 16 17 18 19 20
876
FTUS43 KIND 030520
TAFBMG
TAF
KBMG 030520Z 0306/0406 VRB03KT P6SM BKN050
     FM040000 VRB02KT P6SM BKN150
      AMD LTD TO CLD VIS AND WIND TIL 031400=

USA.gov is the U.S. government's official web portal to all federal, state and local government web resources and services.